createdAt,value
2023-03-27T00:03:31.853Z,29.50
2023-03-27T00:07:32.056Z,29.45
2023-03-27T00:11:31.688Z,29.43
2023-03-27T00:15:31.678Z,29.99
2023-03-27T00:19:32.068Z,31.78
2023-03-27T00:23:32.072Z,28.72
2023-03-27T00:27:31.571Z,29.08
2023-03-27T00:31:31.619Z,30.53
2023-03-27T00:35:31.600Z,31.10
2023-03-27T00:39:31.461Z,31.03
2023-03-27T00:43:31.581Z,28.29
2023-03-27T00:47:31.621Z,30.42
2023-03-27T00:51:31.332Z,31.76
2023-03-27T00:55:31.577Z,29.41
2023-03-27T00:59:31.674Z,30.65
2023-03-27T01:03:31.692Z,29.39
2023-03-27T01:07:31.314Z,31.37
2023-03-27T01:11:31.573Z,28.91
2023-03-27T01:15:31.563Z,30.98
2023-03-27T01:19:31.573Z,28.63
2023-03-27T01:23:58.561Z,28.35
2023-03-27T01:27:32.469Z,29.07
2023-03-27T01:31:31.612Z,27.47
2023-03-27T01:35:31.626Z,30.91
2023-03-27T01:39:31.350Z,30.49
2023-03-27T01:43:31.608Z,27.60
2023-03-27T01:47:31.342Z,29.25
2023-03-27T01:51:31.583Z,30.20
2023-03-27T01:55:31.623Z,31.07
2023-03-27T01:59:31.594Z,30.77
2023-03-27T02:03:31.475Z,29.03
2023-03-27T02:07:31.581Z,31.73
2023-03-27T02:11:31.578Z,30.52
2023-03-27T02:15:32.117Z,29.29
2023-03-27T02:19:32.099Z,30.49
2023-03-27T02:23:31.679Z,30.51
2023-03-27T02:27:32.098Z,29.30
2023-03-27T02:31:34.398Z,28.74
2023-03-27T02:35:32.122Z,29.78
2023-03-27T02:39:31.692Z,26.76
2023-03-27T02:43:31.636Z,33.41
2023-03-27T02:47:32.191Z,31.55
2023-03-27T02:51:31.614Z,32.95
2023-03-27T02:55:31.619Z,29.56
2023-03-27T02:59:31.519Z,29.02
2023-03-27T03:03:31.521Z,27.85
2023-03-27T03:07:31.707Z,28.91
2023-03-27T03:11:31.387Z,30.61
2023-03-27T03:15:31.627Z,28.54
2023-03-27T03:19:31.348Z,31.26
2023-03-27T03:23:31.633Z,31.12
2023-03-27T03:27:31.643Z,29.47
2023-03-27T03:31:31.290Z,30.54
2023-03-27T03:35:31.691Z,29.11
2023-03-27T03:39:31.175Z,28.26
2023-03-27T03:43:31.141Z,29.95
2023-03-27T03:47:31.152Z,30.70
2023-03-27T03:51:31.028Z,30.26
2023-03-27T03:55:31.173Z,28.18
2023-03-27T03:59:30.944Z,27.83
2023-03-27T04:03:31.023Z,28.19
2023-03-27T04:07:31.126Z,27.98
2023-03-27T04:11:30.846Z,30.70
2023-03-27T04:15:31.149Z,28.25
2023-03-27T04:19:30.746Z,30.52
2023-03-27T04:23:31.176Z,29.31
2023-03-27T04:27:31.166Z,28.11
2023-03-27T04:31:30.882Z,29.91
2023-03-27T04:35:30.894Z,29.22
2023-03-27T04:39:30.871Z,28.62
2023-03-27T04:43:31.144Z,34.59
2023-03-27T04:47:31.333Z,31.15
2023-03-27T04:51:31.178Z,33.76
2023-03-27T04:55:31.046Z,34.89
2023-03-27T04:59:31.160Z,34.56
2023-03-27T05:03:31.146Z,33.09
2023-03-27T05:07:31.132Z,34.83
2023-03-27T05:11:31.201Z,33.97
2023-03-27T05:15:31.653Z,35.13
2023-03-27T05:19:31.258Z,32.39
2023-03-27T05:23:31.644Z,33.69
2023-03-27T05:27:31.658Z,34.84
2023-03-27T05:31:31.398Z,31.94
2023-03-27T05:35:31.752Z,36.15
2023-03-27T05:39:31.681Z,33.91
2023-03-27T05:43:31.673Z,34.07
2023-03-27T05:47:31.699Z,79.07
2023-03-27T05:51:31.637Z,82.18
2023-03-27T05:55:32.156Z,99.03
2023-03-27T05:59:32.159Z,145.72
2023-03-27T06:03:32.313Z,131.84
2023-03-27T06:07:32.091Z,212.19
2023-03-27T06:11:32.289Z,231.02
2023-03-27T06:15:32.315Z,239.66
2023-03-27T06:19:32.712Z,248.74
2023-03-27T06:23:32.726Z,249.10
2023-03-27T06:27:32.498Z,250.00
2023-03-27T06:31:33.237Z,250.00
2023-03-27T06:35:33.198Z,245.18
2023-03-27T06:39:32.645Z,248.64
2023-03-27T06:43:32.697Z,243.69
2023-03-27T06:47:36.382Z,248.97
2023-03-27T06:51:33.890Z,191.41
2023-03-27T06:55:32.689Z,85.14
2023-03-27T06:59:32.711Z,122.80
2023-03-27T07:03:32.718Z,150.37
2023-03-27T07:07:32.511Z,157.17
2023-03-27T07:11:32.694Z,168.11
2023-03-27T07:15:32.687Z,173.07
2023-03-27T07:19:33.210Z,179.17
2023-03-27T07:23:33.344Z,183.78
2023-03-27T07:27:33.302Z,186.49
2023-03-27T07:31:51.560Z,197.06
2023-03-27T07:35:34.775Z,200.59
2023-03-27T07:39:33.685Z,203.08
2023-03-27T07:43:33.713Z,183.31
2023-03-27T07:47:33.445Z,152.65
2023-03-27T07:51:33.771Z,205.57
2023-03-27T07:55:33.710Z,248.36
2023-03-27T07:59:33.724Z,248.77
2023-03-27T08:03:33.947Z,248.80
2023-03-27T08:07:33.932Z,249.10
2023-03-27T08:11:34.291Z,249.04
2023-03-27T08:15:33.979Z,249.43
2023-03-27T08:19:33.989Z,248.17
2023-03-27T08:23:34.089Z,249.34
2023-03-27T08:27:34.213Z,249.53
2023-03-27T08:31:34.381Z,249.08
2023-03-27T08:35:34.615Z,247.01
2023-03-27T08:39:34.783Z,248.60
2023-03-27T08:43:34.891Z,244.50
2023-03-27T08:47:35.043Z,170.99
2023-03-27T08:51:35.104Z,200.92
2023-03-27T08:55:35.109Z,222.96
2023-03-27T08:59:35.353Z,169.56
2023-03-27T09:03:35.507Z,149.38
2023-03-27T09:07:35.501Z,166.07
2023-03-27T09:11:35.589Z,168.91
2023-03-27T09:15:35.813Z,168.41
2023-03-27T09:19:35.892Z,172.12
2023-03-27T09:23:36.032Z,175.17
2023-03-27T09:27:36.156Z,175.94
2023-03-27T09:31:36.373Z,179.53
2023-03-27T09:35:36.360Z,178.17
2023-03-27T09:39:36.410Z,180.97
2023-03-27T09:43:36.488Z,175.99
2023-03-27T09:47:36.610Z,54.14
2023-03-27T09:51:36.611Z,109.30
2023-03-27T09:55:36.793Z,115.96
2023-03-27T09:59:36.874Z,111.17
2023-03-27T10:03:37.149Z,101.49
2023-03-27T10:07:37.255Z,101.38
2023-03-27T10:11:37.245Z,91.27
2023-03-27T10:15:37.051Z,89.25
2023-03-27T10:19:37.289Z,77.41
2023-03-27T10:23:37.910Z,77.54
2023-03-27T10:27:37.768Z,75.22
2023-03-27T10:31:38.008Z,70.04
2023-03-27T10:35:37.670Z,61.20
2023-03-27T10:39:37.784Z,53.74
2023-03-27T10:43:38.251Z,59.23
2023-03-27T10:47:38.286Z,74.76
2023-03-27T10:51:46.021Z,79.25
2023-03-27T10:55:38.988Z,83.71
2023-03-27T10:59:41.843Z,88.37
2023-03-27T11:03:38.389Z,89.77
2023-03-27T11:07:38.292Z,97.37
2023-03-27T11:11:37.887Z,94.03
2023-03-27T11:15:38.292Z,99.35
2023-03-27T11:19:38.296Z,96.17
2023-03-27T11:23:37.781Z,105.94
2023-03-27T11:27:37.814Z,106.80
2023-03-27T11:31:37.734Z,115.18
2023-03-27T11:35:38.318Z,68.11
2023-03-27T11:39:38.279Z,85.01
2023-03-27T11:43:38.305Z,77.60
2023-03-27T11:47:38.038Z,90.29
2023-03-27T11:51:38.063Z,89.71
2023-03-27T11:55:38.321Z,93.04
2023-03-27T11:59:38.290Z,93.48
2023-03-27T12:03:38.189Z,90.91
2023-03-27T12:07:40.568Z,93.44
2023-03-27T12:11:39.294Z,92.25
2023-03-27T12:15:38.313Z,92.41
2023-03-27T12:19:39.211Z,90.66
2023-03-27T12:23:38.426Z,88.14
2023-03-27T12:27:38.554Z,86.56
2023-03-27T12:31:38.885Z,91.21
2023-03-27T12:35:39.320Z,92.44
2023-03-27T12:39:39.727Z,92.15
2023-03-27T12:43:39.064Z,88.47
2023-03-27T12:47:39.168Z,89.12
2023-03-27T12:51:39.208Z,92.29
2023-03-27T12:55:39.326Z,96.65
2023-03-27T12:59:39.372Z,95.98
2023-03-27T13:03:46.910Z,94.30
2023-03-27T13:07:39.486Z,92.97
2023-03-27T13:11:39.856Z,91.30
2023-03-27T13:15:39.421Z,90.88
2023-03-27T13:19:39.854Z,89.40
2023-03-27T13:23:39.309Z,89.53
2023-03-27T13:27:39.369Z,91.32
2023-03-27T13:31:39.397Z,91.33
2023-03-27T13:35:39.199Z,83.09
2023-03-27T13:39:39.359Z,85.87
2023-03-27T13:43:39.127Z,84.71
2023-03-27T13:47:39.858Z,83.16
2023-03-27T13:51:39.388Z,80.12
2023-03-27T13:55:39.294Z,81.39
2023-03-27T13:59:39.378Z,82.05
2023-03-27T14:03:39.441Z,85.43
2023-03-27T14:07:39.852Z,82.87
2023-03-27T14:11:39.561Z,79.26
2023-03-27T14:15:39.926Z,82.55
2023-03-27T14:19:39.720Z,76.36
2023-03-27T14:23:39.852Z,81.09
2023-03-27T14:27:40.352Z,73.52
2023-03-27T14:31:40.401Z,74.99
2023-03-27T14:35:40.084Z,79.90
2023-03-27T14:39:40.088Z,75.72
2023-03-27T14:43:40.392Z,74.51
2023-03-27T14:47:40.256Z,73.23
2023-03-27T14:51:40.366Z,69.81
2023-03-27T14:55:40.379Z,71.66
2023-03-27T14:59:40.421Z,70.18
2023-03-27T15:03:40.882Z,70.65
2023-03-27T15:07:40.886Z,67.72
2023-03-27T15:11:40.575Z,67.96
2023-03-27T15:15:40.946Z,65.23
2023-03-27T15:19:40.650Z,70.32
2023-03-27T15:23:40.866Z,68.16
2023-03-27T15:27:40.914Z,67.48
2023-03-27T15:31:40.901Z,66.19
2023-03-27T15:35:40.845Z,61.92
2023-03-27T15:39:40.908Z,64.43
2023-03-27T15:43:42.388Z,65.98
2023-03-27T15:47:41.491Z,66.69
2023-03-27T15:51:40.982Z,68.63
2023-03-27T15:55:41.069Z,65.43
2023-03-27T15:59:52.047Z,66.31
2023-03-27T16:03:42.189Z,64.17
2023-03-27T16:07:41.405Z,64.57
2023-03-27T16:11:41.227Z,63.74
2023-03-27T16:15:41.250Z,62.16
2023-03-27T16:19:41.302Z,60.94
2023-03-27T16:23:41.416Z,64.96
2023-03-27T16:27:41.618Z,52.88
2023-03-27T16:31:41.459Z,61.82
2023-03-27T16:35:41.455Z,56.13
2023-03-27T16:39:41.911Z,57.84
2023-03-27T16:43:41.510Z,58.69
2023-03-27T16:47:42.015Z,63.39
2023-03-27T16:51:41.638Z,58.64
2023-03-27T16:55:41.717Z,61.56
2023-03-27T16:59:41.913Z,56.49
2023-03-27T17:03:41.921Z,56.09
2023-03-27T17:07:42.417Z,53.68
2023-03-27T17:11:42.016Z,56.68
2023-03-27T17:15:42.398Z,58.77
2023-03-27T17:19:42.392Z,56.50
2023-03-27T17:23:42.425Z,55.35
2023-03-27T17:27:42.431Z,54.11
2023-03-27T17:31:42.530Z,55.56
2023-03-27T17:35:42.999Z,52.30
2023-03-27T17:39:42.918Z,53.40
2023-03-27T17:43:42.960Z,48.87
2023-03-27T17:47:42.991Z,52.96
2023-03-27T17:51:42.743Z,52.32
2023-03-27T17:55:42.930Z,51.78
2023-03-27T17:59:42.935Z,48.81
2023-03-27T18:03:42.911Z,48.90
2023-03-27T18:07:42.945Z,51.22
2023-03-27T18:11:42.884Z,46.40
2023-03-27T18:15:43.506Z,49.80
2023-03-27T18:19:43.446Z,51.39
2023-03-27T18:23:46.389Z,49.79
2023-03-27T18:27:43.937Z,50.78
2023-03-27T18:31:42.980Z,44.48
2023-03-27T18:35:42.971Z,44.98
2023-03-27T18:39:42.872Z,49.75
2023-03-27T18:43:42.981Z,46.43
2023-03-27T18:47:42.795Z,48.69
2023-03-27T18:51:42.945Z,46.78
2023-03-27T18:55:42.986Z,44.00
2023-03-27T18:59:42.978Z,44.83
2023-03-27T19:03:42.951Z,45.84
2023-03-27T19:07:44.322Z,42.21
2023-03-27T19:11:42.959Z,46.68
2023-03-27T19:15:42.954Z,47.00
2023-03-27T19:19:43.893Z,44.77
2023-03-27T19:23:42.470Z,43.83
2023-03-27T19:27:42.457Z,42.33
2023-03-27T19:31:42.476Z,44.19
2023-03-27T19:35:42.482Z,44.60
2023-03-27T19:39:42.465Z,45.01
2023-03-27T19:43:42.466Z,45.35
2023-03-27T19:47:42.326Z,43.97
2023-03-27T19:51:42.509Z,40.34
2023-03-27T19:55:42.483Z,38.59
2023-03-27T19:59:42.468Z,42.84
2023-03-27T20:03:42.249Z,40.84
2023-03-27T20:07:42.099Z,43.72
2023-03-27T20:11:42.473Z,41.38
2023-03-27T20:15:42.017Z,46.50
2023-03-27T20:19:41.990Z,32.25
2023-03-27T20:23:41.995Z,41.15
2023-03-27T20:27:41.998Z,41.58
2023-03-27T20:31:42.040Z,36.97
2023-03-27T20:35:41.830Z,36.07
2023-03-27T20:39:42.008Z,37.27
2023-03-27T20:43:41.734Z,41.18
2023-03-27T20:47:42.043Z,36.32
2023-03-27T20:51:42.003Z,37.91
2023-03-27T20:55:53.132Z,39.65
2023-03-27T20:59:42.650Z,37.26
2023-03-27T21:03:41.763Z,40.89
2023-03-27T21:07:42.016Z,39.18
2023-03-27T21:11:42.057Z,39.00
2023-03-27T21:15:42.006Z,35.77
2023-03-27T21:19:41.909Z,34.43
2023-03-27T21:23:42.547Z,37.39
2023-03-27T21:27:41.992Z,34.47
2023-03-27T21:31:42.194Z,32.28
2023-03-27T21:35:42.504Z,34.21
2023-03-27T21:39:42.079Z,37.82
2023-03-27T21:43:42.531Z,34.37
2023-03-27T21:47:47.647Z,34.77
2023-03-27T21:51:43.522Z,36.81
2023-03-27T21:55:42.580Z,34.78
2023-03-27T21:59:42.350Z,33.05
2023-03-27T22:03:42.366Z,33.12
2023-03-27T22:07:42.506Z,31.35
2023-03-27T22:11:42.569Z,33.01
2023-03-27T22:15:42.547Z,35.62
2023-03-27T22:19:42.473Z,36.49
2023-03-27T22:23:42.594Z,34.24
2023-03-27T22:27:42.535Z,30.54
2023-03-27T22:31:43.707Z,34.72
2023-03-27T22:35:43.068Z,36.09
2023-03-27T22:39:42.649Z,34.41
2023-03-27T22:43:43.033Z,34.23
2023-03-27T22:47:43.071Z,34.14
2023-03-27T22:51:43.037Z,26.57
2023-03-27T22:55:42.926Z,38.06
2023-03-27T22:59:43.023Z,34.85
2023-03-27T23:03:43.175Z,34.26
2023-03-27T23:07:43.540Z,35.13
2023-03-27T23:11:43.559Z,28.03
2023-03-27T23:15:43.221Z,30.48
2023-03-27T23:19:43.543Z,27.71
2023-03-27T23:23:43.266Z,38.38
2023-03-27T23:27:43.563Z,31.78
2023-03-27T23:31:43.598Z,38.37
2023-03-27T23:35:43.440Z,35.13
2023-03-27T23:39:43.536Z,39.01
2023-03-27T23:43:43.536Z,28.35
2023-03-27T23:47:44.083Z,32.22
2023-03-27T23:51:43.635Z,35.94
2023-03-27T23:55:44.052Z,29.13
2023-03-27T23:59:43.756Z,33.60
